sensor_id;sensor_type;location;lat;lon;timestamp;P1;durP1;ratioP1;P2;durP2;ratioP2
20138;SDS011;10230;51.502;10.800;2022-11-04T00:01:39;4.60;;;2.80;;
20138;SDS011;10230;51.502;10.800;2022-11-04T00:04:06;3.23;;;1.70;;
20138;SDS011;10230;51.502;10.800;2022-11-04T00:06:32;3.37;;;2.00;;
20138;SDS011;10230;51.502;10.800;2022-11-04T00:08:58;3.90;;;2.00;;
20138;SDS011;10230;51.502;10.800;2022-11-04T00:11:25;3.50;;;2.23;;
20138;SDS011;10230;51.502;10.800;2022-11-04T00:14:11;8.00;;;3.73;;
20138;SDS011;10230;51.502;10.800;2022-11-04T00:16:37;3.43;;;1.97;;
20138;SDS011;10230;51.502;10.800;2022-11-04T00:19:22;4.77;;;2.30;;
20138;SDS011;10230;51.502;10.800;2022-11-04T00:21:48;4.77;;;2.77;;
20138;SDS011;10230;51.502;10.800;2022-11-04T00:24:33;5.97;;;2.60;;
20138;SDS011;10230;51.502;10.800;2022-11-04T00:27:19;5.73;;;2.87;;
20138;SDS011;10230;51.502;10.800;2022-11-04T00:30:05;4.77;;;2.10;;
20138;SDS011;10230;51.502;10.800;2022-11-04T00:32:32;3.47;;;1.87;;
20138;SDS011;10230;51.502;10.800;2022-11-04T00:35:17;2.30;;;1.87;;
20138;SDS011;10230;51.502;10.800;2022-11-04T00:37:43;3.87;;;2.30;;
20138;SDS011;10230;51.502;10.800;2022-11-04T00:40:10;3.80;;;2.70;;
20138;SDS011;10230;51.502;10.800;2022-11-04T00:42:36;2.90;;;2.10;;
20138;SDS011;10230;51.502;10.800;2022-11-04T00:45:02;4.57;;;1.87;;
20138;SDS011;10230;51.502;10.800;2022-11-04T00:47:29;4.87;;;2.77;;
20138;SDS011;10230;51.502;10.800;2022-11-04T00:49:55;3.17;;;1.90;;
20138;SDS011;10230;51.502;10.800;2022-11-04T00:52:21;4.20;;;2.00;;
20138;SDS011;10230;51.502;10.800;2022-11-04T00:54:47;3.53;;;2.33;;
20138;SDS011;10230;51.502;10.800;2022-11-04T00:57:13;3.13;;;1.90;;
20138;SDS011;10230;51.502;10.800;2022-11-04T00:59:40;3.13;;;2.20;;
20138;SDS011;10230;51.502;10.800;2022-11-04T01:02:06;3.10;;;1.87;;
20138;SDS011;10230;51.502;10.800;2022-11-04T01:04:33;7.47;;;4.27;;
20138;SDS011;10230;51.502;10.800;2022-11-04T01:06:59;2.87;;;1.83;;
20138;SDS011;10230;51.502;10.800;2022-11-04T01:09:25;4.33;;;2.37;;
20138;SDS011;10230;51.502;10.800;2022-11-04T01:11:51;7.20;;;2.43;;
20138;SDS011;10230;51.502;10.800;2022-11-04T01:14:17;7.33;;;2.63;;
20138;SDS011;10230;51.502;10.800;2022-11-04T01:16:44;4.17;;;1.93;;
20138;SDS011;10230;51.502;10.800;2022-11-04T01:19:10;4.20;;;2.37;;
20138;SDS011;10230;51.502;10.800;2022-11-04T01:21:36;4.57;;;2.43;;
20138;SDS011;10230;51.502;10.800;2022-11-04T01:24:02;4.40;;;2.30;;
20138;SDS011;10230;51.502;10.800;2022-11-04T01:26:29;3.83;;;2.50;;
20138;SDS011;10230;51.502;10.800;2022-11-04T01:28:56;6.80;;;2.50;;
20138;SDS011;10230;51.502;10.800;2022-11-04T01:31:23;4.10;;;2.13;;
20138;SDS011;10230;51.502;10.800;2022-11-04T01:33:49;3.53;;;2.07;;
20138;SDS011;10230;51.502;10.800;2022-11-04T01:36:16;5.00;;;2.43;;
20138;SDS011;10230;51.502;10.800;2022-11-04T01:38:42;4.70;;;2.47;;
20138;SDS011;10230;51.502;10.800;2022-11-04T01:41:09;3.10;;;2.00;;
20138;SDS011;10230;51.502;10.800;2022-11-04T01:46:12;5.40;;;2.67;;
20138;SDS011;10230;51.502;10.800;2022-11-04T01:48:40;8.70;;;3.97;;
20138;SDS011;10230;51.502;10.800;2022-11-04T01:51:06;14.13;;;4.90;;
20138;SDS011;10230;51.502;10.800;2022-11-04T01:53:33;9.53;;;4.43;;
20138;SDS011;10230;51.502;10.800;2022-11-04T01:56:01;11.37;;;5.10;;
20138;SDS011;10230;51.502;10.800;2022-11-04T01:58:35;9.17;;;5.10;;
20138;SDS011;10230;51.502;10.800;2022-11-04T02:01:01;10.80;;;4.90;;
20138;SDS011;10230;51.502;10.800;2022-11-04T02:03:35;8.77;;;4.13;;
20138;SDS011;10230;51.502;10.800;2022-11-04T02:06:03;4.93;;;3.57;;
20138;SDS011;10230;51.502;10.800;2022-11-04T02:08:29;3.40;;;2.63;;
20138;SDS011;10230;51.502;10.800;2022-11-04T02:10:57;5.00;;;3.07;;
20138;SDS011;10230;51.502;10.800;2022-11-04T02:13:23;5.43;;;3.07;;
20138;SDS011;10230;51.502;10.800;2022-11-04T02:21:08;5.27;;;2.80;;
20138;SDS011;10230;51.502;10.800;2022-11-04T02:28:59;5.40;;;3.00;;
20138;SDS011;10230;51.502;10.800;2022-11-04T02:33:53;7.20;;;3.37;;
20138;SDS011;10230;51.502;10.800;2022-11-04T02:36:57;4.70;;;3.00;;
20138;SDS011;10230;51.502;10.800;2022-11-04T02:41:54;3.83;;;2.67;;
20138;SDS011;10230;51.502;10.800;2022-11-04T02:46:51;4.57;;;2.83;;
20138;SDS011;10230;51.502;10.800;2022-11-04T02:52:06;3.63;;;2.90;;
20138;SDS011;10230;51.502;10.800;2022-11-04T02:54:41;5.30;;;2.90;;
20138;SDS011;10230;51.502;10.800;2022-11-04T02:57:10;4.17;;;2.70;;
20138;SDS011;10230;51.502;10.800;2022-11-04T02:59:43;4.50;;;3.40;;
20138;SDS011;10230;51.502;10.800;2022-11-04T03:02:12;4.33;;;3.30;;
20138;SDS011;10230;51.502;10.800;2022-11-04T03:04:42;5.40;;;3.03;;
20138;SDS011;10230;51.502;10.800;2022-11-04T03:07:11;5.00;;;3.10;;
20138;SDS011;10230;51.502;10.800;2022-11-04T03:09:40;6.20;;;3.43;;
20138;SDS011;10230;51.502;10.800;2022-11-04T03:12:08;8.53;;;3.93;;
20138;SDS011;10230;51.502;10.800;2022-11-04T03:14:43;7.47;;;3.40;;
20138;SDS011;10230;51.502;10.800;2022-11-04T03:17:17;6.60;;;3.80;;
20138;SDS011;10230;51.502;10.800;2022-11-04T03:19:57;5.73;;;3.20;;
20138;SDS011;10230;51.502;10.800;2022-11-04T03:22:24;5.93;;;3.60;;
20138;SDS011;10230;51.502;10.800;2022-11-04T03:24:51;6.93;;;2.80;;
20138;SDS011;10230;51.502;10.800;2022-11-04T03:32:19;5.33;;;3.70;;
20138;SDS011;10230;51.502;10.800;2022-11-04T03:34:47;5.73;;;3.60;;
20138;SDS011;10230;51.502;10.800;2022-11-04T03:37:13;8.07;;;3.70;;
20138;SDS011;10230;51.502;10.800;2022-11-04T03:39:39;4.50;;;3.90;;
20138;SDS011;10230;51.502;10.800;2022-11-04T03:42:07;4.87;;;3.57;;
20138;SDS011;10230;51.502;10.800;2022-11-04T03:44:54;6.53;;;3.97;;
20138;SDS011;10230;51.502;10.800;2022-11-04T03:47:21;6.73;;;4.00;;
20138;SDS011;10230;51.502;10.800;2022-11-04T03:49:48;7.07;;;3.73;;
20138;SDS011;10230;51.502;10.800;2022-11-04T03:52:16;5.13;;;3.93;;
20138;SDS011;10230;51.502;10.800;2022-11-04T03:54:42;5.40;;;3.87;;
20138;SDS011;10230;51.502;10.800;2022-11-04T04:04:39;4.97;;;3.23;;
20138;SDS011;10230;51.502;10.800;2022-11-04T04:07:14;7.27;;;4.30;;
20138;SDS011;10230;51.502;10.800;2022-11-04T04:09:42;5.83;;;3.87;;
20138;SDS011;10230;51.502;10.800;2022-11-04T04:12:16;5.87;;;3.57;;
20138;SDS011;10230;51.502;10.800;2022-11-04T04:14:47;4.57;;;3.10;;
20138;SDS011;10230;51.502;10.800;2022-11-04T04:17:18;4.63;;;3.67;;
20138;SDS011;10230;51.502;10.800;2022-11-04T04:19:56;4.47;;;2.93;;
20138;SDS011;10230;51.502;10.800;2022-11-04T04:22:25;4.80;;;2.90;;
20138;SDS011;10230;51.502;10.800;2022-11-04T04:24:52;6.07;;;3.43;;
20138;SDS011;10230;51.502;10.800;2022-11-04T04:27:38;6.20;;;3.47;;
20138;SDS011;10230;51.502;10.800;2022-11-04T04:30:06;3.50;;;2.57;;
20138;SDS011;10230;51.502;10.800;2022-11-04T04:32:37;5.13;;;3.53;;
20138;SDS011;10230;51.502;10.800;2022-11-04T04:35:05;2.60;;;1.97;;
20138;SDS011;10230;51.502;10.800;2022-11-04T04:37:49;2.23;;;1.80;;
20138;SDS011;10230;51.502;10.800;2022-11-04T04:40:17;2.50;;;2.30;;
20138;SDS011;10230;51.502;10.800;2022-11-04T04:43:04;3.57;;;2.23;;
20138;SDS011;10230;51.502;10.800;2022-11-04T04:45:49;3.03;;;2.20;;
20138;SDS011;10230;51.502;10.800;2022-11-04T04:48:17;4.20;;;2.10;;
20138;SDS011;10230;51.502;10.800;2022-11-04T04:50:44;2.43;;;1.60;;
20138;SDS011;10230;51.502;10.800;2022-11-04T04:53:12;4.10;;;1.73;;
20138;SDS011;10230;51.502;10.800;2022-11-04T04:55:38;3.50;;;1.70;;
20138;SDS011;10230;51.502;10.800;2022-11-04T04:58:04;1.83;;;1.43;;
20138;SDS011;10230;51.502;10.800;2022-11-04T05:00:30;2.37;;;1.60;;
20138;SDS011;10230;51.502;10.800;2022-11-04T05:02:57;5.07;;;2.63;;
20138;SDS011;10230;51.502;10.800;2022-11-04T05:05:23;3.30;;;1.27;;
20138;SDS011;10230;51.502;10.800;2022-11-04T05:07:49;1.83;;;1.13;;
20138;SDS011;10230;51.502;10.800;2022-11-04T05:10:16;1.80;;;0.97;;
20138;SDS011;10230;51.502;10.800;2022-11-04T05:12:42;2.07;;;1.17;;
20138;SDS011;10230;51.502;10.800;2022-11-04T05:15:27;2.93;;;1.80;;
20138;SDS011;10230;51.502;10.800;2022-11-04T05:17:53;1.97;;;0.90;;
20138;SDS011;10230;51.502;10.800;2022-11-04T05:20:20;1.07;;;0.57;;
20138;SDS011;10230;51.502;10.800;2022-11-04T05:22:46;1.80;;;0.80;;
20138;SDS011;10230;51.502;10.800;2022-11-04T05:25:12;0.93;;;0.57;;
20138;SDS011;10230;51.502;10.800;2022-11-04T05:27:38;0.50;;;0.50;;
20138;SDS011;10230;51.502;10.800;2022-11-04T05:30:04;1.00;;;0.60;;
20138;SDS011;10230;51.502;10.800;2022-11-04T05:32:30;1.77;;;0.80;;
20138;SDS011;10230;51.502;10.800;2022-11-04T05:34:56;0.70;;;0.60;;
20138;SDS011;10230;51.502;10.800;2022-11-04T05:37:22;2.67;;;1.60;;
20138;SDS011;10230;51.502;10.800;2022-11-04T05:39:48;0.80;;;0.60;;
20138;SDS011;10230;51.502;10.800;2022-11-04T05:42:14;0.50;;;0.40;;
20138;SDS011;10230;51.502;10.800;2022-11-04T05:44:40;0.93;;;0.60;;
20138;SDS011;10230;51.502;10.800;2022-11-04T05:47:06;1.30;;;0.50;;
20138;SDS011;10230;51.502;10.800;2022-11-04T05:49:32;1.10;;;0.60;;
20138;SDS011;10230;51.502;10.800;2022-11-04T05:51:58;1.67;;;0.43;;
20138;SDS011;10230;51.502;10.800;2022-11-04T05:54:24;0.43;;;0.40;;
20138;SDS011;10230;51.502;10.800;2022-11-04T05:56:50;1.90;;;0.53;;
20138;SDS011;10230;51.502;10.800;2022-11-04T05:59:17;1.07;;;0.70;;
20138;SDS011;10230;51.502;10.800;2022-11-04T06:01:43;1.33;;;0.83;;
20138;SDS011;10230;51.502;10.800;2022-11-04T06:04:12;1.00;;;0.70;;
20138;SDS011;10230;51.502;10.800;2022-11-04T06:06:38;1.40;;;0.87;;
20138;SDS011;10230;51.502;10.800;2022-11-04T06:09:04;1.70;;;1.10;;
20138;SDS011;10230;51.502;10.800;2022-11-04T06:11:31;0.70;;;0.57;;
20138;SDS011;10230;51.502;10.800;2022-11-04T06:13:57;1.53;;;0.73;;
20138;SDS011;10230;51.502;10.800;2022-11-04T06:16:23;2.37;;;0.80;;
20138;SDS011;10230;51.502;10.800;2022-11-04T06:18:49;0.90;;;0.70;;
20138;SDS011;10230;51.502;10.800;2022-11-04T06:23:44;1.67;;;0.77;;
20138;SDS011;10230;51.502;10.800;2022-11-04T06:26:11;1.07;;;0.70;;
20138;SDS011;10230;51.502;10.800;2022-11-04T06:28:37;1.17;;;0.63;;
20138;SDS011;10230;51.502;10.800;2022-11-04T06:31:04;0.67;;;0.47;;
20138;SDS011;10230;51.502;10.800;2022-11-04T06:33:30;1.40;;;0.73;;
20138;SDS011;10230;51.502;10.800;2022-11-04T06:36:00;1.80;;;1.13;;
20138;SDS011;10230;51.502;10.800;2022-11-04T06:38:28;1.40;;;0.80;;
20138;SDS011;10230;51.502;10.800;2022-11-04T06:40:54;1.03;;;0.87;;
20138;SDS011;10230;51.502;10.800;2022-11-04T06:43:20;1.80;;;0.97;;
20138;SDS011;10230;51.502;10.800;2022-11-04T06:45:52;1.60;;;0.90;;
20138;SDS011;10230;51.502;10.800;2022-11-04T06:48:18;1.73;;;0.80;;
20138;SDS011;10230;51.502;10.800;2022-11-04T06:50:44;1.23;;;0.80;;
20138;SDS011;10230;51.502;10.800;2022-11-04T06:53:10;2.13;;;0.70;;
20138;SDS011;10230;51.502;10.800;2022-11-04T06:55:36;2.60;;;1.10;;
20138;SDS011;10230;51.502;10.800;2022-11-04T06:58:02;0.70;;;0.60;;
20138;SDS011;10230;51.502;10.800;2022-11-04T07:00:28;2.23;;;0.87;;
20138;SDS011;10230;51.502;10.800;2022-11-04T07:02:54;2.10;;;0.60;;
20138;SDS011;10230;51.502;10.800;2022-11-04T07:05:20;0.80;;;0.50;;
20138;SDS011;10230;51.502;10.800;2022-11-04T07:07:46;0.70;;;0.70;;
20138;SDS011;10230;51.502;10.800;2022-11-04T07:10:12;0.50;;;0.40;;
20138;SDS011;10230;51.502;10.800;2022-11-04T07:12:38;1.30;;;0.70;;
20138;SDS011;10230;51.502;10.800;2022-11-04T07:15:05;1.90;;;0.77;;
20138;SDS011;10230;51.502;10.800;2022-11-04T07:17:31;0.90;;;0.57;;
20138;SDS011;10230;51.502;10.800;2022-11-04T07:19:57;1.20;;;0.73;;
20138;SDS011;10230;51.502;10.800;2022-11-04T07:22:23;1.30;;;0.70;;
20138;SDS011;10230;51.502;10.800;2022-11-04T07:24:49;1.33;;;0.63;;
20138;SDS011;10230;51.502;10.800;2022-11-04T07:27:15;2.13;;;1.00;;
20138;SDS011;10230;51.502;10.800;2022-11-04T07:29:41;1.13;;;0.70;;
20138;SDS011;10230;51.502;10.800;2022-11-04T07:32:07;1.30;;;0.60;;
20138;SDS011;10230;51.502;10.800;2022-11-04T07:34:33;1.53;;;0.90;;
20138;SDS011;10230;51.502;10.800;2022-11-04T07:36:59;1.60;;;1.00;;
20138;SDS011;10230;51.502;10.800;2022-11-04T07:39:25;3.43;;;1.70;;
20138;SDS011;10230;51.502;10.800;2022-11-04T07:41:51;3.13;;;1.77;;
20138;SDS011;10230;51.502;10.800;2022-11-04T07:44:17;2.47;;;0.90;;
20138;SDS011;10230;51.502;10.800;2022-11-04T07:46:43;2.53;;;1.57;;
20138;SDS011;10230;51.502;10.800;2022-11-04T07:49:09;1.57;;;1.10;;
20138;SDS011;10230;51.502;10.800;2022-11-04T07:51:35;1.57;;;0.90;;
20138;SDS011;10230;51.502;10.800;2022-11-04T07:54:01;0.90;;;0.80;;
20138;SDS011;10230;51.502;10.800;2022-11-04T07:56:27;1.03;;;0.60;;
20138;SDS011;10230;51.502;10.800;2022-11-04T07:58:53;1.57;;;1.27;;
20138;SDS011;10230;51.502;10.800;2022-11-04T08:01:20;1.23;;;1.10;;
20138;SDS011;10230;51.502;10.800;2022-11-04T08:03:50;2.23;;;1.23;;
20138;SDS011;10230;51.502;10.800;2022-11-04T08:06:17;2.20;;;1.57;;
20138;SDS011;10230;51.502;10.800;2022-11-04T08:08:43;2.37;;;1.13;;
20138;SDS011;10230;51.502;10.800;2022-11-04T08:11:16;1.37;;;0.80;;
20138;SDS011;10230;51.502;10.800;2022-11-04T08:13:42;2.30;;;1.23;;
20138;SDS011;10230;51.502;10.800;2022-11-04T08:16:10;2.17;;;1.50;;
20138;SDS011;10230;51.502;10.800;2022-11-04T08:18:40;1.53;;;0.97;;
20138;SDS011;10230;51.502;10.800;2022-11-04T08:21:06;1.73;;;1.10;;
20138;SDS011;10230;51.502;10.800;2022-11-04T08:23:32;1.43;;;1.10;;
20138;SDS011;10230;51.502;10.800;2022-11-04T08:25:58;2.70;;;1.03;;
20138;SDS011;10230;51.502;10.800;2022-11-04T08:28:25;1.23;;;0.83;;
20138;SDS011;10230;51.502;10.800;2022-11-04T08:33:20;1.90;;;1.33;;
20138;SDS011;10230;51.502;10.800;2022-11-04T08:35:46;4.20;;;2.43;;
20138;SDS011;10230;51.502;10.800;2022-11-04T08:38:13;1.67;;;1.20;;
20138;SDS011;10230;51.502;10.800;2022-11-04T08:40:39;1.67;;;1.07;;
20138;SDS011;10230;51.502;10.800;2022-11-04T08:43:06;1.17;;;0.77;;
20138;SDS011;10230;51.502;10.800;2022-11-04T08:45:32;1.60;;;1.00;;
20138;SDS011;10230;51.502;10.800;2022-11-04T08:47:58;2.27;;;0.87;;
20138;SDS011;10230;51.502;10.800;2022-11-04T08:50:24;1.87;;;1.03;;
20138;SDS011;10230;51.502;10.800;2022-11-04T08:52:52;1.57;;;1.00;;
20138;SDS011;10230;51.502;10.800;2022-11-04T08:55:18;1.30;;;0.83;;
20138;SDS011;10230;51.502;10.800;2022-11-04T08:57:44;1.63;;;0.93;;
20138;SDS011;10230;51.502;10.800;2022-11-04T09:00:10;1.63;;;0.83;;
20138;SDS011;10230;51.502;10.800;2022-11-04T09:02:36;2.77;;;1.10;;
20138;SDS011;10230;51.502;10.800;2022-11-04T09:05:04;2.17;;;0.97;;
20138;SDS011;10230;51.502;10.800;2022-11-04T09:07:30;1.60;;;0.97;;
20138;SDS011;10230;51.502;10.800;2022-11-04T09:09:57;2.93;;;1.10;;
20138;SDS011;10230;51.502;10.800;2022-11-04T09:12:23;1.30;;;0.70;;
20138;SDS011;10230;51.502;10.800;2022-11-04T09:14:49;0.70;;;0.67;;
20138;SDS011;10230;51.502;10.800;2022-11-04T09:17:15;2.03;;;0.70;;
20138;SDS011;10230;51.502;10.800;2022-11-04T09:19:41;0.60;;;0.53;;
20138;SDS011;10230;51.502;10.800;2022-11-04T09:22:07;2.17;;;0.50;;
20138;SDS011;10230;51.502;10.800;2022-11-04T09:24:33;2.03;;;0.40;;
20138;SDS011;10230;51.502;10.800;2022-11-04T09:26:59;0.60;;;0.47;;
20138;SDS011;10230;51.502;10.800;2022-11-04T09:29:25;0.70;;;0.60;;
20138;SDS011;10230;51.502;10.800;2022-11-04T09:31:51;1.40;;;0.80;;
20138;SDS011;10230;51.502;10.800;2022-11-04T09:34:17;3.20;;;0.70;;
20138;SDS011;10230;51.502;10.800;2022-11-04T09:36:43;0.60;;;0.60;;
20138;SDS011;10230;51.502;10.800;2022-11-04T09:39:11;1.00;;;0.67;;
20138;SDS011;10230;51.502;10.800;2022-11-04T09:46:48;2.13;;;0.47;;
20138;SDS011;10230;51.502;10.800;2022-11-04T09:49:14;0.75;;;0.50;;
20138;SDS011;10230;51.502;10.800;2022-11-04T09:51:41;0.70;;;0.50;;
20138;SDS011;10230;51.502;10.800;2022-11-04T09:54:12;0.82;;;0.28;;
20138;SDS011;10230;51.502;10.800;2022-11-04T09:56:41;4.43;;;0.80;;
20138;SDS011;10230;51.502;10.800;2022-11-04T09:59:10;2.35;;;0.50;;
20138;SDS011;10230;51.502;10.800;2022-11-04T10:01:44;0.73;;;0.73;;
20138;SDS011;10230;51.502;10.800;2022-11-04T10:07:00;2.70;;;0.75;;
20138;SDS011;10230;51.502;10.800;2022-11-04T10:09:41;1.52;;;1.08;;
20138;SDS011;10230;51.502;10.800;2022-11-04T10:17:30;1.30;;;0.38;;
20138;SDS011;10230;51.502;10.800;2022-11-04T10:22:32;0.65;;;0.60;;
20138;SDS011;10230;51.502;10.800;2022-11-04T10:28:00;2.33;;;0.85;;
20138;SDS011;10230;51.502;10.800;2022-11-04T10:30:27;3.88;;;1.00;;
20138;SDS011;10230;51.502;10.800;2022-11-04T10:35:37;2.03;;;0.75;;
20138;SDS011;10230;51.502;10.800;2022-11-04T10:40:48;2.25;;;0.57;;
20138;SDS011;10230;51.502;10.800;2022-11-04T10:43:16;1.67;;;0.50;;
20138;SDS011;10230;51.502;10.800;2022-11-04T10:45:56;3.45;;;1.20;;
20138;SDS011;10230;51.502;10.800;2022-11-04T10:48:27;2.15;;;0.50;;
20138;SDS011;10230;51.502;10.800;2022-11-04T10:50:56;2.28;;;1.17;;
20138;SDS011;10230;51.502;10.800;2022-11-04T10:53:23;2.53;;;1.10;;
20138;SDS011;10230;51.502;10.800;2022-11-04T10:55:53;1.00;;;0.63;;
20138;SDS011;10230;51.502;10.800;2022-11-04T10:58:21;2.15;;;0.55;;
20138;SDS011;10230;51.502;10.800;2022-11-04T11:00:48;3.40;;;0.77;;
20138;SDS011;10230;51.502;10.800;2022-11-04T11:03:33;3.72;;;0.50;;
20138;SDS011;10230;51.502;10.800;2022-11-04T11:06:18;1.42;;;0.50;;
20138;SDS011;10230;51.502;10.800;2022-11-04T11:08:45;1.20;;;0.45;;
20138;SDS011;10230;51.502;10.800;2022-11-04T11:11:12;3.45;;;0.60;;
20138;SDS011;10230;51.502;10.800;2022-11-04T11:13:40;3.70;;;0.70;;
20138;SDS011;10230;51.502;10.800;2022-11-04T11:16:11;2.42;;;1.15;;
20138;SDS011;10230;51.502;10.800;2022-11-04T11:18:37;1.02;;;0.50;;
20138;SDS011;10230;51.502;10.800;2022-11-04T11:23:37;3.00;;;0.55;;
20138;SDS011;10230;51.502;10.800;2022-11-04T11:26:08;2.47;;;0.60;;
20138;SDS011;10230;51.502;10.800;2022-11-04T11:28:35;5.07;;;0.77;;
20138;SDS011;10230;51.502;10.800;2022-11-04T11:31:12;2.45;;;0.73;;
20138;SDS011;10230;51.502;10.800;2022-11-04T11:33:51;3.88;;;0.82;;
20138;SDS011;10230;51.502;10.800;2022-11-04T11:36:23;2.65;;;0.90;;
20138;SDS011;10230;51.502;10.800;2022-11-04T11:39:32;2.30;;;0.50;;
20138;SDS011;10230;51.502;10.800;2022-11-04T11:44:31;1.33;;;0.70;;
20138;SDS011;10230;51.502;10.800;2022-11-04T11:47:05;1.52;;;0.47;;
20138;SDS011;10230;51.502;10.800;2022-11-04T11:49:33;2.20;;;0.90;;
20138;SDS011;10230;51.502;10.800;2022-11-04T11:54:45;1.88;;;0.63;;
20138;SDS011;10230;51.502;10.800;2022-11-04T11:57:22;1.48;;;0.70;;
20138;SDS011;10230;51.502;10.800;2022-11-04T11:59:51;2.22;;;1.13;;
20138;SDS011;10230;51.502;10.800;2022-11-04T12:02:26;2.92;;;1.42;;
20138;SDS011;10230;51.502;10.800;2022-11-04T12:04:53;1.65;;;0.50;;
20138;SDS011;10230;51.502;10.800;2022-11-04T12:07:55;4.43;;;0.80;;
20138;SDS011;10230;51.502;10.800;2022-11-04T12:10:25;2.25;;;0.60;;
20138;SDS011;10230;51.502;10.800;2022-11-04T12:12:59;4.22;;;2.45;;
20138;SDS011;10230;51.502;10.800;2022-11-04T12:26:01;3.42;;;0.70;;
20138;SDS011;10230;51.502;10.800;2022-11-04T12:29:12;3.45;;;1.75;;
20138;SDS011;10230;51.502;10.800;2022-11-04T12:31:29;2.30;;;0.70;;
20138;SDS011;10230;51.502;10.800;2022-11-04T12:39:09;3.85;;;0.90;;
20138;SDS011;10230;51.502;10.800;2022-11-04T12:44:12;1.30;;;0.63;;
20138;SDS011;10230;51.502;10.800;2022-11-04T12:46:43;2.33;;;0.75;;
20138;SDS011;10230;51.502;10.800;2022-11-04T12:49:37;3.38;;;0.82;;
20138;SDS011;10230;51.502;10.800;2022-11-04T12:54:43;2.97;;;0.80;;
20138;SDS011;10230;51.502;10.800;2022-11-04T13:00:03;3.22;;;0.73;;
20138;SDS011;10230;51.502;10.800;2022-11-04T13:05:29;2.97;;;1.30;;
20138;SDS011;10230;51.502;10.800;2022-11-04T13:07:57;3.10;;;0.88;;
20138;SDS011;10230;51.502;10.800;2022-11-04T13:13:13;4.28;;;1.10;;
20138;SDS011;10230;51.502;10.800;2022-11-04T13:15:47;4.07;;;0.90;;
20138;SDS011;10230;51.502;10.800;2022-11-04T13:18:15;1.73;;;1.00;;
20138;SDS011;10230;51.502;10.800;2022-11-04T13:21:29;2.13;;;0.70;;
20138;SDS011;10230;51.502;10.800;2022-11-04T13:23:40;2.90;;;1.27;;
20138;SDS011;10230;51.502;10.800;2022-11-04T13:26:11;5.38;;;1.08;;
20138;SDS011;10230;51.502;10.800;2022-11-04T13:28:39;2.10;;;0.68;;
20138;SDS011;10230;51.502;10.800;2022-11-04T13:31:09;2.47;;;1.23;;
20138;SDS011;10230;51.502;10.800;2022-11-04T13:36:12;1.73;;;0.93;;
20138;SDS011;10230;51.502;10.800;2022-11-04T13:38:41;6.32;;;1.63;;
20138;SDS011;10230;51.502;10.800;2022-11-04T13:41:22;1.95;;;0.90;;
20138;SDS011;10230;51.502;10.800;2022-11-04T13:43:52;2.47;;;1.05;;
20138;SDS011;10230;51.502;10.800;2022-11-04T13:46:22;2.60;;;1.08;;
20138;SDS011;10230;51.502;10.800;2022-11-04T13:49:04;3.05;;;1.58;;
20138;SDS011;10230;51.502;10.800;2022-11-04T13:51:44;2.15;;;0.98;;
20138;SDS011;10230;51.502;10.800;2022-11-04T13:56:48;2.20;;;1.15;;
20138;SDS011;10230;51.502;10.800;2022-11-04T14:02:08;3.33;;;1.70;;
20138;SDS011;10230;51.502;10.800;2022-11-04T14:04:36;3.70;;;1.80;;
20138;SDS011;10230;51.502;10.800;2022-11-04T14:07:03;4.47;;;1.17;;
20138;SDS011;10230;51.502;10.800;2022-11-04T14:14:37;1.20;;;0.50;;
20138;SDS011;10230;51.502;10.800;2022-11-04T14:17:07;2.97;;;0.60;;
20138;SDS011;10230;51.502;10.800;2022-11-04T14:20:00;1.42;;;0.70;;
20138;SDS011;10230;51.502;10.800;2022-11-04T14:27:43;3.50;;;0.82;;
20138;SDS011;10230;51.502;10.800;2022-11-04T14:32:55;5.43;;;1.50;;
20138;SDS011;10230;51.502;10.800;2022-11-04T14:35:23;2.13;;;1.20;;
20138;SDS011;10230;51.502;10.800;2022-11-04T14:37:50;4.07;;;1.00;;
20138;SDS011;10230;51.502;10.800;2022-11-04T14:40:26;4.40;;;1.65;;
20138;SDS011;10230;51.502;10.800;2022-11-04T14:42:55;11.00;;;5.00;;
20138;SDS011;10230;51.502;10.800;2022-11-04T14:45:23;3.50;;;1.80;;
20138;SDS011;10230;51.502;10.800;2022-11-04T14:47:51;3.17;;;1.30;;
20138;SDS011;10230;51.502;10.800;2022-11-04T14:50:25;1.70;;;0.97;;
20138;SDS011;10230;51.502;10.800;2022-11-04T14:52:55;2.20;;;1.00;;
20138;SDS011;10230;51.502;10.800;2022-11-04T14:55:30;2.37;;;0.70;;
20138;SDS011;10230;51.502;10.800;2022-11-04T15:03:21;3.13;;;0.87;;
20138;SDS011;10230;51.502;10.800;2022-11-04T15:06:06;2.43;;;0.83;;
20138;SDS011;10230;51.502;10.800;2022-11-04T15:11:11;2.77;;;1.07;;
20138;SDS011;10230;51.502;10.800;2022-11-04T15:13:44;5.43;;;2.23;;
20138;SDS011;10230;51.502;10.800;2022-11-04T15:16:17;4.53;;;2.30;;
20138;SDS011;10230;51.502;10.800;2022-11-04T15:18:45;2.43;;;1.07;;
20138;SDS011;10230;51.502;10.800;2022-11-04T15:21:11;2.40;;;0.90;;
20138;SDS011;10230;51.502;10.800;2022-11-04T15:23:47;2.30;;;1.00;;
20138;SDS011;10230;51.502;10.800;2022-11-04T15:28:44;2.40;;;0.90;;
20138;SDS011;10230;51.502;10.800;2022-11-04T15:33:38;2.50;;;0.80;;
20138;SDS011;10230;51.502;10.800;2022-11-04T15:36:06;2.37;;;0.90;;
20138;SDS011;10230;51.502;10.800;2022-11-04T15:38:33;1.77;;;0.80;;
20138;SDS011;10230;51.502;10.800;2022-11-04T15:40:59;1.97;;;1.30;;
20138;SDS011;10230;51.502;10.800;2022-11-04T15:43:45;3.67;;;0.90;;
20138;SDS011;10230;51.502;10.800;2022-11-04T15:46:15;2.60;;;0.70;;
20138;SDS011;10230;51.502;10.800;2022-11-04T15:48:42;4.50;;;1.37;;
20138;SDS011;10230;51.502;10.800;2022-11-04T15:51:12;1.90;;;0.90;;
20138;SDS011;10230;51.502;10.800;2022-11-04T15:53:56;5.20;;;1.40;;
20138;SDS011;10230;51.502;10.800;2022-11-04T15:56:25;5.17;;;1.30;;
20138;SDS011;10230;51.502;10.800;2022-11-04T15:58:52;4.93;;;1.30;;
20138;SDS011;10230;51.502;10.800;2022-11-04T16:01:19;7.07;;;3.47;;
20138;SDS011;10230;51.502;10.800;2022-11-04T16:03:47;4.83;;;2.70;;
20138;SDS011;10230;51.502;10.800;2022-11-04T16:06:13;3.13;;;1.47;;
20138;SDS011;10230;51.502;10.800;2022-11-04T16:08:39;4.37;;;1.57;;
20138;SDS011;10230;51.502;10.800;2022-11-04T16:13:40;3.67;;;1.93;;
20138;SDS011;10230;51.502;10.800;2022-11-04T16:16:13;1.87;;;1.30;;
20138;SDS011;10230;51.502;10.800;2022-11-04T16:18:41;3.13;;;1.40;;
20138;SDS011;10230;51.502;10.800;2022-11-04T16:21:10;2.77;;;1.00;;
20138;SDS011;10230;51.502;10.800;2022-11-04T16:23:42;3.97;;;1.53;;
20138;SDS011;10230;51.502;10.800;2022-11-04T16:26:09;3.40;;;1.77;;
20138;SDS011;10230;51.502;10.800;2022-11-04T16:28:35;2.70;;;1.17;;
20138;SDS011;10230;51.502;10.800;2022-11-04T16:34:00;4.10;;;1.73;;
20138;SDS011;10230;51.502;10.800;2022-11-04T16:36:26;3.13;;;1.50;;
20138;SDS011;10230;51.502;10.800;2022-11-04T16:41:19;6.03;;;2.13;;
20138;SDS011;10230;51.502;10.800;2022-11-04T16:43:46;6.53;;;1.40;;
20138;SDS011;10230;51.502;10.800;2022-11-04T16:46:13;4.00;;;1.50;;
20138;SDS011;10230;51.502;10.800;2022-11-04T16:48:39;5.50;;;2.30;;
20138;SDS011;10230;51.502;10.800;2022-11-04T16:51:05;7.27;;;2.50;;
20138;SDS011;10230;51.502;10.800;2022-11-04T16:53:31;6.17;;;1.70;;
20138;SDS011;10230;51.502;10.800;2022-11-04T16:55:57;4.57;;;2.10;;
20138;SDS011;10230;51.502;10.800;2022-11-04T16:58:24;6.10;;;1.90;;
20138;SDS011;10230;51.502;10.800;2022-11-04T17:00:52;5.80;;;2.87;;
20138;SDS011;10230;51.502;10.800;2022-11-04T17:03:18;11.23;;;3.07;;
20138;SDS011;10230;51.502;10.800;2022-11-04T17:05:52;7.27;;;3.53;;
20138;SDS011;10230;51.502;10.800;2022-11-04T17:08:20;4.13;;;2.37;;
20138;SDS011;10230;51.502;10.800;2022-11-04T17:10:46;4.23;;;2.37;;